Time;durP1;ratioP1;P1;durP2;ratioP2;P2;SDS_P1;SDS_P2;PMS_P1;PMS_P2;Temp;Humidity;BMP_temperature;BMP_pressure;BME280_temperature;BME280_humidity;BME280_pressure;Samples;Min_cycle;Max_cycle;Signal;HPM_P1;HPM_P2
2022/11/24 00:00:48;;;;;;;5.88;2.15;;;;;;;8.07;100.00;97798.81;4139494;28;20208;-45
2022/11/24 00:02:49;;;;;;;13.88;1.63;;;;;;;8.06;100.00;97801.78;4153717;28;20872;-45
2022/11/24 00:04:51;;;;;;;4.40;2.13;;;;;;;8.05;100.00;97800.97;4135731;28;20221;-45
2022/11/24 00:06:53;;;;;;;3.90;1.80;;;;;;;8.02;100.00;97806.91;4150891;28;20225;-45
2022/11/24 00:08:55;;;;;;;16.80;1.58;;;;;;;8.07;100.00;97800.72;4130511;28;20634;-45
2022/11/24 00:11:05;;;;;;;5.05;1.63;;;;;;;8.02;100.00;97806.91;4132745;28;20213;-45
2022/11/24 00:13:07;;;;;;;3.33;2.00;;;;;;;8.00;100.00;97802.78;4136598;28;20229;-45
2022/11/24 00:15:09;;;;;;;5.15;1.98;;;;;;;7.99;100.00;97803.88;4135906;28;20325;-46
2022/11/24 00:17:11;;;;;;;2.50;2.17;;;;;;;8.00;100.00;97808.25;4136898;28;20216;-45
2022/11/24 00:19:13;;;;;;;7.80;1.83;;;;;;;8.02;100.00;97811.56;4138772;28;20245;-45
2022/11/24 00:21:20;;;;;;;3.22;1.85;;;;;;;8.04;100.00;97814.84;4139262;28;20234;-45
2022/11/24 00:23:22;;;;;;;8.60;1.95;;;;;;;8.04;100.00;97817.56;4143964;28;20615;-45
2022/11/24 00:25:24;;;;;;;1.70;1.15;;;;;;;8.02;100.00;97822.47;4156069;28;20229;-45
2022/11/24 00:27:26;;;;;;;4.50;2.75;;;;;;;8.00;100.00;97824.59;4129076;28;22370;-45
2022/11/24 00:29:28;;;;;;;2.60;2.08;;;;;;;7.92;100.00;97827.75;4135365;28;20288;-45
2022/11/24 00:31:32;;;;;;;3.08;1.33;;;;;;;7.95;100.00;97832.72;4139704;28;20206;-45
2022/11/24 00:33:34;;;;;;;4.75;1.73;;;;;;;7.95;100.00;97838.16;4143479;28;20220;-45
2022/11/24 00:35:37;;;;;;;1.83;1.38;;;;;;;8.03;100.00;97838.53;4140913;28;20701;-51
2022/11/24 00:37:38;;;;;;;3.20;2.33;;;;;;;7.99;100.00;97844.72;4138590;28;20241;-45
2022/11/24 00:39:40;;;;;;;4.18;1.73;;;;;;;7.99;100.00;97851.03;4154802;28;20204;-46
2022/11/24 00:41:42;;;;;;;2.05;1.80;;;;;;;8.04;100.00;97847.53;4127057;28;20747;-45
2022/11/24 00:43:44;;;;;;;2.88;1.20;;;;;;;8.06;100.00;97853.56;4154800;28;20221;-46
2022/11/24 00:45:46;;;;;;;3.28;1.92;;;;;;;8.07;100.00;97857.94;4140877;28;20305;-46
2022/11/24 00:47:48;;;;;;;8.38;2.40;;;;;;;8.06;100.00;97856.28;4140862;28;20674;-46
2022/11/24 00:49:49;;;;;;;3.75;1.92;;;;;;;8.02;100.00;97855.16;4140269;28;20242;-45
2022/11/24 00:51:51;;;;;;;2.95;1.70;;;;;;;8.05;100.00;97860.91;4141786;28;20218;-45
2022/11/24 00:53:55;;;;;;;2.03;1.50;;;;;;;8.12;100.00;97858.00;4141006;28;20591;-46
2022/11/24 00:55:57;;;;;;;4.82;1.85;;;;;;;8.08;100.00;97867.78;4132650;28;20272;-45
2022/11/24 00:57:58;;;;;;;11.25;2.08;;;;;;;8.06;100.00;97861.72;4132959;28;20644;-45
2022/11/24 01:00:00;;;;;;;4.90;2.80;;;;;;;8.09;100.00;97877.59;4125826;28;20234;-45
2022/11/24 01:02:02;;;;;;;2.47;1.60;;;;;;;8.08;100.00;97871.31;4138933;28;20252;-46
2022/11/24 01:04:04;;;;;;;13.60;2.95;;;;;;;8.14;100.00;97869.47;4142249;28;20228;-45
2022/11/24 01:06:08;;;;;;;3.25;2.25;;;;;;;8.15;100.00;97873.88;4140902;28;20288;-45
2022/11/24 01:08:10;;;;;;;5.55;2.83;;;;;;;8.16;100.00;97878.25;4142070;28;20304;-45
2022/11/24 01:10:12;;;;;;;3.42;2.03;;;;;;;8.18;100.00;97881.53;4152162;28;20217;-45
2022/11/24 01:12:14;;;;;;;10.30;3.20;;;;;;;8.21;100.00;97883.81;4137614;28;20263;-45
2022/11/24 01:14:16;;;;;;;7.20;2.70;;;;;;;8.15;100.00;97882.03;4140163;28;20332;-45
2022/11/24 01:16:23;;;;;;;8.20;2.53;;;;;;;8.13;100.00;97878.72;4139035;28;20233;-46
2022/11/24 01:18:25;;;;;;;5.50;3.50;;;;;;;8.20;100.00;97882.13;4143451;28;20659;-46
2022/11/24 01:20:27;;;;;;;5.13;2.10;;;;;;;8.19;100.00;97883.19;4139615;28;20687;-45
2022/11/24 01:22:29;;;;;;;5.55;3.22;;;;;;;8.15;100.00;97877.41;4140866;28;20281;-45
2022/11/24 01:24:31;;;;;;;4.57;2.92;;;;;;;8.18;100.00;97881.53;4137205;28;20283;-45
2022/11/24 01:26:33;;;;;;;5.53;2.25;;;;;;;8.20;100.00;97879.41;4152824;28;20219;-45
2022/11/24 01:28:35;;;;;;;8.95;2.90;;;;;;;8.21;100.00;97878.34;4142071;28;21104;-44
2022/11/24 01:30:40;;;;;;;3.00;2.65;;;;;;;8.23;100.00;97874.28;4130025;28;20289;-45
2022/11/24 01:32:41;;;;;;;6.65;2.22;;;;;;;8.20;100.00;97879.41;4140929;28;20209;-45
2022/11/24 01:34:43;;;;;;;2.55;2.35;;;;;;;8.17;100.00;97879.88;4141415;28;20708;-45
2022/11/24 01:36:45;;;;;;;12.18;2.40;;;;;;;8.17;100.00;97875.28;4141763;28;20289;-46
2022/11/24 01:38:47;;;;;;;4.90;3.10;;;;;;;8.16;100.00;97883.69;4132646;28;20237;-45
2022/11/24 01:40:49;;;;;;;4.00;1.95;;;;;;;8.16;100.00;97870.06;4141123;28;20692;-45
2022/11/24 01:42:51;;;;;;;3.50;2.03;;;;;;;8.19;100.00;97877.72;4135855;28;20240;-46
2022/11/24 01:45:27;;;;;;;5.63;2.20;;;;;;;8.14;100.00;97886.66;4137965;28;20242;-46
2022/11/24 01:47:39;;;;;;;8.07;1.60;;;;;;;8.11;100.00;97883.59;4139732;28;20300;-45
2022/11/24 01:49:46;;;;;;;6.60;2.63;;;;;;;8.16;100.00;97889.13;4142179;28;20213;-45
2022/11/24 01:51:52;;;;;;;2.35;1.80;;;;;;;8.14;100.00;97894.00;4139456;28;20352;-45
2022/11/24 01:54:07;;;;;;;6.10;1.83;;;;;;;8.12;100.00;97891.53;4140760;28;20225;-45
2022/11/24 01:56:10;;;;;;;2.47;2.08;;;;;;;8.12;100.00;97887.97;4141787;28;20263;-45
2022/11/24 01:58:18;;;;;;;3.60;2.03;;;;;;;8.15;100.00;97887.50;4140813;28;20296;-46
2022/11/24 02:00:20;;;;;;;2.67;2.47;;;;;;;8.11;100.00;97892.63;4151375;28;20287;-45
2022/11/24 02:02:22;;;;;;;3.53;2.35;;;;;;;8.07;100.00;97896.06;4139785;28;20240;-45
2022/11/24 02:04:27;;;;;;;2.13;1.60;;;;;;;8.11;100.00;97891.78;4138675;28;20299;-46
2022/11/24 02:06:30;;;;;;;4.95;2.00;;;;;;;8.01;100.00;97892.44;4153230;28;20243;-45
2022/11/24 02:08:42;;;;;;;11.52;2.92;;;;;;;8.08;100.00;97895.03;4153564;28;20678;-46
2022/11/24 02:10:45;;;;;;;14.88;2.33;;;;;;;8.06;100.00;97895.25;4135984;28;20193;-46
2022/11/24 02:12:48;;;;;;;1.92;1.70;;;;;;;8.04;100.00;97893.84;4137397;28;20256;-45
2022/11/24 02:14:51;;;;;;;3.22;2.35;;;;;;;8.00;100.00;97889.97;4141391;28;20348;-46
2022/11/24 02:16:53;;;;;;;6.25;2.40;;;;;;;8.05;100.00;97890.06;4152425;28;20761;-46
2022/11/24 02:18:55;;;;;;;4.75;1.92;;;;;;;8.03;100.00;97890.28;4137019;28;20343;-46
2022/11/24 02:21:00;;;;;;;4.85;2.92;;;;;;;8.06;100.00;97894.41;4135954;28;20238;-45
2022/11/24 02:23:24;;;;;;;2.85;2.25;;;;;;;8.03;100.00;97890.28;4135534;28;20347;-46
2022/11/24 02:25:49;;;;;;;3.92;2.10;;;;;;;8.01;100.00;97897.09;4137529;28;20198;-46
2022/11/24 02:27:52;;;;;;;4.88;2.25;;;;;;;8.02;100.00;97887.84;4139881;28;20312;-46
2022/11/24 02:29:54;;;;;;;10.55;2.30;;;;;;;8.08;100.00;97887.66;4141683;28;20788;-45
2022/11/24 02:32:02;;;;;;;5.18;2.22;;;;;;;8.08;100.00;97893.09;4121190;28;20246;-45
2022/11/24 02:34:04;;;;;;;7.63;1.70;;;;;;;8.06;100.00;97888.97;4135901;28;20268;-45
2022/11/24 02:36:09;;;;;;;1.60;1.50;;;;;;;8.07;100.00;97896.06;4122659;28;20246;-45
2022/11/24 02:38:12;;;;;;;2.47;1.73;;;;;;;8.10;100.00;97901.03;4137958;28;20266;-45
2022/11/24 02:40:25;;;;;;;6.55;2.10;;;;;;;8.03;100.00;97895.75;4127038;28;20237;-45
2022/11/24 02:42:31;;;;;;;3.30;2.38;;;;;;;8.03;100.00;97895.75;4137308;28;20237;-45
2022/11/24 02:44:36;;;;;;;17.38;2.53;;;;;;;8.07;100.00;97904.25;4136718;28;20325;-45
2022/11/24 02:46:38;;;;;;;7.47;1.85;;;;;;;8.03;100.00;97900.38;4136583;28;20304;-45
2022/11/24 02:48:40;;;;;;;5.80;2.20;;;;;;;8.00;100.00;97898.13;4138096;28;20288;-45
2022/11/24 02:50:42;;;;;;;3.78;2.15;;;;;;;7.99;100.00;97899.22;4122089;28;20206;-46
2022/11/24 02:52:44;;;;;;;7.78;2.30;;;;;;;7.99;100.00;97891.03;4136531;28;20230;-46
2022/11/24 02:54:45;;;;;;;4.30;2.28;;;;;;;8.04;100.00;97896.56;4135839;28;20759;-46
2022/11/24 02:56:47;;;;;;;4.55;2.63;;;;;;;8.00;100.00;97884.50;4135748;28;20283;-46
2022/11/24 02:58:49;;;;;;;6.85;2.45;;;;;;;7.93;100.00;97887.44;4124454;28;20244;-45
2022/11/24 03:00:53;;;;;;;3.92;1.48;;;;;;;7.97;100.00;97888.59;4138613;28;20236;-45
2022/11/24 03:02:54;;;;;;;4.15;2.53;;;;;;;8.00;100.00;97879.06;4137922;28;20263;-45
2022/11/24 03:04:56;;;;;;;3.40;2.50;;;;;;;7.94;100.00;97891.78;4124388;28;20229;-45
2022/11/24 03:06:58;;;;;;;3.13;1.90;;;;;;;7.96;100.00;97894.28;4125783;28;20266;-45
2022/11/24 03:09:00;;;;;;;8.32;2.50;;;;;;;7.98;100.00;97903.03;4138308;28;20229;-45
2022/11/24 03:11:02;;;;;;;5.45;2.08;;;;;;;7.98;100.00;97898.41;4131282;28;20300;-45
2022/11/24 03:13:04;;;;;;;7.97;1.98;;;;;;;8.00;100.00;97901.69;4132037;28;20241;-46
2022/11/24 03:15:06;;;;;;;5.50;1.77;;;;;;;8.00;100.00;97909.03;4133569;28;20334;-45
2022/11/24 03:17:08;;;;;;;5.28;2.22;;;;;;;7.99;100.00;97910.13;4134062;28;20324;-46
2022/11/24 03:19:09;;;;;;;7.20;1.88;;;;;;;8.01;100.00;97913.44;4140551;28;20211;-46
2022/11/24 03:21:11;;;;;;;5.65;3.38;;;;;;;7.98;100.00;97913.91;4124307;28;20237;-46
2022/11/24 03:23:13;;;;;;;12.88;2.08;;;;;;;8.00;100.00;97912.59;4136261;28;20340;-45
2022/11/24 03:25:15;;;;;;;7.95;2.08;;;;;;;8.05;100.00;97917.28;4121918;28;20641;-45
2022/11/24 03:27:16;;;;;;;6.97;2.53;;;;;;;8.06;100.00;97916.22;4125272;28;20266;-46
2022/11/24 03:29:18;;;;;;;5.35;2.22;;;;;;;8.05;100.00;97914.56;4150410;28;20968;-46
2022/11/24 03:31:20;;;;;;;7.40;2.55;;;;;;;8.02;100.00;97909.63;4139029;28;20296;-45
2022/11/24 03:33:22;;;;;;;4.47;2.00;;;;;;;7.99;100.00;97912.84;4135460;28;20649;-46
2022/11/24 03:35:24;;;;;;;6.55;2.80;;;;;;;8.08;100.00;97914.09;4135912;28;20301;-47
2022/11/24 03:37:27;;;;;;;8.05;2.83;;;;;;;8.02;100.00;97915.09;4141257;28;20292;-45
2022/11/24 03:39:28;;;;;;;6.68;2.40;;;;;;;8.05;100.00;97914.56;4150075;28;20208;-46
2022/11/24 03:41:30;;;;;;;4.72;2.17;;;;;;;8.02;100.00;97906.91;4139451;28;20229;-45
2022/11/24 03:43:32;;;;;;;12.40;2.28;;;;;;;8.00;100.00;97911.75;4137080;28;20296;-45
2022/11/24 03:45:34;;;;;;;7.40;2.45;;;;;;;8.03;100.00;97911.28;4149422;28;20327;-45
2022/11/24 03:47:51;;;;;;;3.15;2.25;;;;;;;8.02;100.00;97912.34;4139449;28;20228;-46
2022/11/24 03:49:53;;;;;;;9.02;2.45;;;;;;;8.00;100.00;97907.16;4121216;28;20241;-45
2022/11/24 03:51:54;;;;;;;8.68;2.53;;;;;;;8.05;100.00;97914.56;4135717;28;20210;-45
2022/11/24 03:53:56;;;;;;;8.68;2.58;;;;;;;8.03;100.00;97912.09;4143167;28;20693;-45
2022/11/24 03:55:59;;;;;;;8.85;1.80;;;;;;;8.06;100.00;97906.16;4138066;28;20263;-45
2022/11/24 03:58:01;;;;;;;5.78;1.73;;;;;;;8.04;100.00;97911.03;4138216;28;20634;-45
2022/11/24 04:00:05;;;;;;;10.05;2.65;;;;;;;8.08;100.00;97917.63;4141328;28;20239;-46
2022/11/24 04:02:07;;;;;;;4.65;2.35;;;;;;;8.06;100.00;97916.22;4153320;28;20685;-46
2022/11/24 04:04:12;;;;;;;8.80;2.55;;;;;;;8.02;100.00;97915.09;4123477;28;20687;-46
2022/11/24 04:06:14;;;;;;;4.20;2.15;;;;;;;8.09;100.00;97910.28;4142397;28;20296;-45
2022/11/24 04:08:16;;;;;;;21.27;2.60;;;;;;;8.03;100.00;97914.00;4128425;28;20736;-45
2022/11/24 04:10:18;;;;;;;8.43;2.72;;;;;;;8.08;100.00;97917.63;4144479;28;20713;-46
2022/11/24 04:14:40;;;;;;;3.70;2.42;;;;;;;8.08;100.00;97914.09;4141442;28;20320;-46
2022/11/24 04:16:41;;;;;;;5.97;1.85;;;;;;;8.03;100.00;97912.09;4124135;28;20213;-46
2022/11/24 04:18:43;;;;;;;5.25;1.80;;;;;;;8.05;100.00;97909.13;4141434;28;20240;-46
2022/11/24 04:20:48;;;;;;;5.65;2.78;;;;;;;8.09;100.00;97910.28;4142667;28;20296;-45
2022/11/24 04:22:50;;;;;;;11.85;2.50;;;;;;;8.07;100.00;97912.41;4142944;28;20213;-45
2022/11/24 04:24:52;;;;;;;3.03;2.13;;;;;;;8.10;100.00;97917.38;4153422;28;20240;-45
2022/11/24 04:26:54;;;;;;;13.07;3.25;;;;;;;8.03;100.00;97917.53;4140608;28;20241;-45
2022/11/24 04:28:55;;;;;;;9.00;2.47;;;;;;;8.12;100.00;97920.69;4144319;28;20224;-46
2022/11/24 04:31:04;;;;;;;6.03;3.00;;;;;;;8.09;100.00;97927.44;4140688;28;20220;-45
2022/11/24 04:33:05;;;;;;;3.80;2.50;;;;;;;8.06;100.00;97921.66;4143661;28;20233;-45
2022/11/24 04:35:07;;;;;;;8.30;2.40;;;;;;;8.11;100.00;97924.47;4142879;28;20980;-45
2022/11/24 04:37:09;;;;;;;5.80;1.98;;;;;;;8.10;100.00;97920.91;4144465;28;20296;-45
2022/11/24 04:39:11;;;;;;;3.22;2.90;;;;;;;8.10;100.00;97918.19;4153635;28;20300;-46
2022/11/24 04:41:26;;;;;;;5.05;2.40;;;;;;;8.07;100.00;97928.75;4139021;28;20546;-45
2022/11/24 04:43:29;;;;;;;5.60;2.33;;;;;;;8.07;100.00;97924.16;4120420;28;20890;-46
2022/11/24 04:45:30;;;;;;;5.78;2.47;;;;;;;8.06;100.00;97932.56;4129960;28;20242;-46
2022/11/24 04:47:32;;;;;;;4.28;1.58;;;;;;;8.05;100.00;97936.38;4135853;28;20625;-46
2022/11/24 04:49:34;;;;;;;5.68;2.15;;;;;;;8.00;100.00;97939.00;4136507;28;20261;-46
2022/11/24 04:51:40;;;;;;;7.18;2.53;;;;;;;7.96;100.00;97930.50;4147902;28;20259;-46
2022/11/24 04:53:41;;;;;;;2.83;1.92;;;;;;;7.93;100.00;97932.91;4148711;28;20233;-46
2022/11/24 04:55:43;;;;;;;7.22;2.65;;;;;;;7.95;100.00;97938.94;4138202;28;20228;-46
2022/11/24 04:57:45;;;;;;;7.97;2.03;;;;;;;7.91;100.00;97929.59;4125826;28;20206;-46
2022/11/24 04:59:48;;;;;;;3.95;2.58;;;;;;;7.90;100.00;97925.22;4139261;28;20238;-46
2022/11/24 05:01:50;;;;;;;16.92;2.90;;;;;;;7.85;100.00;97930.59;4153406;28;20216;-46
2022/11/24 05:03:53;;;;;;;4.32;2.20;;;;;;;7.84;100.00;97926.22;4150945;28;20237;-46
2022/11/24 05:05:58;;;;;;;6.45;2.67;;;;;;;7.75;100.00;97933.16;4121827;28;20206;-45
2022/11/24 05:08:00;;;;;;;4.03;2.75;;;;;;;7.78;100.00;97932.66;4135074;28;20212;-45
2022/11/24 05:12:23;;;;;;;5.43;2.50;;;;;;;7.78;100.00;97951.72;4140383;28;20213;-45
2022/11/24 05:14:26;;;;;;;6.63;1.92;;;;;;;7.76;100.00;97953.88;4129687;28;20230;-46
2022/11/24 05:16:28;;;;;;;5.45;2.30;;;;;;;7.77;100.00;97956.34;4136906;28;20216;-46
2022/11/24 05:18:30;;;;;;;5.13;1.92;;;;;;;7.74;100.00;97953.25;4138461;28;20253;-46
2022/11/24 05:20:32;;;;;;;4.40;1.80;;;;;;;7.73;100.00;97955.19;4137682;28;20312;-45
2022/11/24 05:22:34;;;;;;;4.32;1.73;;;;;;;7.79;100.00;97969.69;4133535;28;20213;-45
2022/11/24 05:24:36;;;;;;;4.53;1.60;;;;;;;7.80;100.00;97976.78;4139762;28;20316;-46
2022/11/24 05:26:38;;;;;;;7.82;1.48;;;;;;;7.80;100.00;97977.63;4136137;28;20295;-46
2022/11/24 05:28:40;;;;;;;4.70;2.10;;;;;;;7.80;100.00;97982.25;4140153;28;20283;-45
2022/11/24 05:30:42;;;;;;;13.15;3.28;;;;;;;7.81;100.00;97983.91;4137761;28;20252;-45
2022/11/24 05:32:44;;;;;;;3.63;1.73;;;;;;;7.82;100.00;97980.13;4134895;28;20704;-46
2022/11/24 05:34:45;;;;;;;4.43;2.17;;;;;;;7.81;100.00;98002.97;4150445;28;20260;-46
2022/11/24 05:36:53;;;;;;;6.90;2.33;;;;;;;7.81;100.00;97995.63;4151555;28;20295;-46
2022/11/24 05:38:55;;;;;;;5.82;2.13;;;;;;;7.78;100.00;98006.19;4122438;28;20763;-46
2022/11/24 05:41:04;;;;;;;2.92;1.65;;;;;;;7.70;100.00;98007.38;4135048;28;20671;-46
2022/11/24 05:43:11;;;;;;;5.97;1.63;;;;;;;7.77;100.00;98004.53;4114720;28;20209;-46
2022/11/24 05:45:18;;;;;;;5.25;2.17;;;;;;;7.73;100.00;98004.19;4126319;28;20262;-45
2022/11/24 05:47:24;;;;;;;5.90;2.20;;;;;;;7.75;100.00;98009.41;4136203;28;20934;-46
2022/11/24 05:49:29;;;;;;;4.63;1.83;;;;;;;7.71;100.00;98010.94;4140896;28;20217;-45
2022/11/24 05:51:33;;;;;;;3.00;1.42;;;;;;;7.72;100.00;98015.31;4131957;28;20371;-44
2022/11/24 05:53:35;;;;;;;10.60;2.22;;;;;;;7.70;100.00;98009.31;4124009;28;20704;-45
2022/11/24 05:55:39;;;;;;;4.97;2.25;;;;;;;7.71;100.00;98005.50;4142371;28;20213;-46
2022/11/24 05:57:41;;;;;;;3.97;2.20;;;;;;;7.69;100.00;98002.22;4133641;28;20296;-45
2022/11/24 05:59:43;;;;;;;4.82;2.45;;;;;;;7.65;100.00;98001.03;4152813;28;20210;-45
2022/11/24 06:01:45;;;;;;;4.70;2.00;;;;;;;7.63;100.00;98005.91;4141802;28;20568;-45
2022/11/24 06:03:47;;;;;;;2.53;1.60;;;;;;;7.61;100.00;97999.88;4121730;28;20223;-45
2022/11/24 06:05:49;;;;;;;7.82;1.63;;;;;;;7.58;100.00;98005.81;4136957;28;20237;-45
2022/11/24 06:07:51;;;;;;;11.38;2.25;;;;;;;7.61;100.00;98002.59;4152560;28;20213;-46
2022/11/24 06:09:53;;;;;;;5.40;1.80;;;;;;;7.58;100.00;98001.19;4134953;28;20798;-45
2022/11/24 06:11:54;;;;;;;2.17;1.98;;;;;;;7.62;100.00;98002.34;4136761;28;20559;-44
2022/11/24 06:13:56;;;;;;;4.45;1.70;;;;;;;7.65;100.00;98001.88;4140024;28;20253;-45
2022/11/24 06:15:58;;;;;;;11.88;2.35;;;;;;;7.57;100.00;98004.16;4141028;28;20687;-46
2022/11/24 06:18:00;;;;;;;3.80;1.70;;;;;;;7.60;100.00;98003.66;4140877;28;20797;-45
2022/11/24 06:20:03;;;;;;;2.67;1.35;;;;;;;7.58;100.00;98017.53;4137604;28;20288;-45
2022/11/24 06:22:07;;;;;;;2.22;1.25;;;;;;;7.62;100.00;98007.78;4116675;28;20261;-45
2022/11/24 06:24:10;;;;;;;2.42;1.35;;;;;;;7.57;100.00;98009.59;4139882;28;20221;-45
2022/11/24 06:26:11;;;;;;;3.95;1.65;;;;;;;7.60;100.00;98009.09;4142077;28;20275;-46
2022/11/24 06:28:13;;;;;;;4.22;1.50;;;;;;;7.56;100.00;98014.19;4153233;28;20204;-46
2022/11/24 06:30:15;;;;;;;5.85;2.35;;;;;;;7.63;100.00;98016.78;4139441;28;20244;-46
2022/11/24 06:32:17;;;;;;;1.77;1.55;;;;;;;7.57;100.00;98018.56;4139831;28;20213;-46
2022/11/24 06:34:19;;;;;;;2.67;2.47;;;;;;;7.65;100.00;98017.38;4151972;28;20236;-46
2022/11/24 06:36:20;;;;;;;6.28;2.83;;;;;;;7.63;100.00;98022.25;4137089;28;20209;-45
2022/11/24 06:38:22;;;;;;;9.98;2.33;;;;;;;7.63;100.00;98024.97;4138251;28;20930;-46
2022/11/24 06:40:25;;;;;;;5.40;1.60;;;;;;;7.65;100.00;98026.38;4137873;28;20299;-46
2022/11/24 06:42:26;;;;;;;1.70;1.52;;;;;;;7.64;100.00;98029.34;4142842;28;20237;-46
2022/11/24 06:44:28;;;;;;;5.05;1.98;;;;;;;7.60;100.00;98033.59;4142404;28;20229;-45
2022/11/24 06:46:30;;;;;;;2.83;1.75;;;;;;;7.67;100.00;98026.09;4142136;28;20297;-47
2022/11/24 06:48:32;;;;;;;3.47;2.72;;;;;;;7.70;100.00;98031.91;4121864;28;20210;-46
2022/11/24 06:50:34;;;;;;;2.88;1.88;;;;;;;7.72;100.00;98034.38;4132337;28;20216;-45
2022/11/24 06:52:36;;;;;;;1.77;1.55;;;;;;;7.72;100.00;98039.81;4126419;28;20210;-45
2022/11/24 06:54:38;;;;;;;6.93;2.53;;;;;;;7.66;100.00;98048.97;4136358;28;20229;-46
2022/11/24 06:56:39;;;;;;;10.65;2.10;;;;;;;7.72;100.00;98050.72;4137746;28;20206;-46
2022/11/24 06:58:44;;;;;;;4.88;1.83;;;;;;;7.71;100.00;98054.53;4152005;28;20243;-46
2022/11/24 07:00:49;;;;;;;3.97;2.00;;;;;;;7.70;100.00;98050.16;4139532;28;20229;-46
2022/11/24 07:02:51;;;;;;;4.85;1.42;;;;;;;7.68;100.00;98055.81;4139674;28;20244;-46
2022/11/24 07:04:52;;;;;;;5.90;2.15;;;;;;;7.75;100.00;98055.69;4152164;28;20229;-45
2022/11/24 07:06:54;;;;;;;6.78;1.90;;;;;;;7.76;100.00;98066.31;4137051;28;20228;-45
2022/11/24 07:08:56;;;;;;;6.72;1.67;;;;;;;7.77;100.00;98059.84;4137238;28;20221;-46
2022/11/24 07:11:03;;;;;;;2.85;1.77;;;;;;;7.79;100.00;98062.28;4108333;28;20657;-46
2022/11/24 07:13:06;;;;;;;4.28;1.67;;;;;;;7.72;100.00;98067.06;4130909;28;20219;-46
2022/11/24 07:15:08;;;;;;;4.47;1.77;;;;;;;7.74;100.00;98071.19;4149996;28;20328;-45
2022/11/24 07:17:10;;;;;;;5.32;1.77;;;;;;;7.75;100.00;98077.47;4139111;28;20709;-45
2022/11/24 07:19:12;;;;;;;3.10;1.60;;;;;;;7.80;100.00;98083.84;4152257;28;20225;-46
2022/11/24 07:21:14;;;;;;;7.32;1.60;;;;;;;7.75;100.00;98091.09;4137114;28;20213;-46
2022/11/24 07:23:16;;;;;;;4.47;2.30;;;;;;;7.75;100.00;98089.19;4150582;28;20205;-45
2022/11/24 07:25:17;;;;;;;3.25;2.03;;;;;;;7.78;100.00;98094.16;4135645;28;20311;-46
2022/11/24 07:27:19;;;;;;;4.88;2.08;;;;;;;7.77;100.00;98106.13;4136847;28;20244;-45
2022/11/24 07:29:21;;;;;;;7.13;2.80;;;;;;;7.74;100.00;98108.47;4135425;28;20232;-46
2022/11/24 07:31:26;;;;;;;3.60;2.03;;;;;;;7.72;100.00;98116.06;4140049;28;20328;-46
2022/11/24 07:33:27;;;;;;;8.95;2.60;;;;;;;7.80;100.00;98111.06;4134278;28;20205;-46
2022/11/24 07:35:29;;;;;;;3.92;2.25;;;;;;;7.80;100.00;98121.13;4128647;28;20206;-45
2022/11/24 07:37:31;;;;;;;1.92;1.30;;;;;;;7.80;100.00;98118.41;4134472;28;20289;-45
2022/11/24 07:39:33;;;;;;;2.92;1.55;;;;;;;7.81;100.00;98120.09;4118055;28;20203;-46
2022/11/24 07:41:34;;;;;;;3.08;2.42;;;;;;;7.77;100.00;98129.81;4120700;28;21142;-46
2022/11/24 07:43:37;;;;;;;3.00;1.90;;;;;;;7.82;100.00;98132.63;4137078;28;20707;-46
2022/11/24 07:45:39;;;;;;;4.90;2.08;;;;;;;7.83;100.00;98139.72;4138564;28;20829;-46
2022/11/24 07:47:41;;;;;;;6.93;2.78;;;;;;;7.78;100.00;98145.91;4153830;28;20213;-46
2022/11/24 07:49:43;;;;;;;8.27;2.33;;;;;;;7.78;100.00;98137.75;4132813;28;20255;-45
2022/11/24 07:51:45;;;;;;;4.95;2.17;;;;;;;7.85;100.00;98143.88;4139579;28;20257;-45
2022/11/24 07:53:46;;;;;;;6.05;2.03;;;;;;;7.94;100.00;98147.00;4124189;28;20225;-45
2022/11/24 07:55:56;;;;;;;4.63;2.55;;;;;;;7.95;100.00;98154.16;4136744;28;20240;-45
2022/11/24 07:57:59;;;;;;;5.60;1.92;;;;;;;7.94;100.00;98157.91;4140394;28;20678;-45
2022/11/24 08:00:03;;;;;;;4.10;1.80;;;;;;;7.96;100.00;98167.50;4139341;28;20236;-45
2022/11/24 08:02:05;;;;;;;5.40;2.47;;;;;;;7.93;100.00;98161.72;4137936;28;20206;-45
2022/11/24 08:04:07;;;;;;;3.65;1.38;;;;;;;8.18;100.00;98165.78;4125084;28;20233;-45
2022/11/24 08:06:10;;;;;;;4.00;2.03;;;;;;;8.42;100.00;98161.88;4142672;28;20213;-45
2022/11/24 08:08:32;;;;;;;2.97;1.60;;;;;;;8.50;100.00;98158.75;4139698;28;20602;-46
2022/11/24 08:10:34;;;;;;;2.78;1.40;;;;;;;8.41;100.00;98164.88;4131502;28;20599;-46
2022/11/24 08:12:36;;;;;;;3.38;2.25;;;;;;;8.37;100.00;98163.69;4140775;28;20201;-45
2022/11/24 08:14:38;;;;;;;4.22;1.60;;;;;;;8.37;100.00;98160.97;4139213;28;20285;-45
2022/11/24 08:16:39;;;;;;;4.68;2.10;;;;;;;8.51;100.00;98165.88;4141566;28;20217;-47
2022/11/24 08:18:42;;;;;;;2.97;2.10;;;;;;;8.47;100.00;98169.31;4145039;28;20205;-46
2022/11/24 08:20:44;;;;;;;4.45;1.60;;;;;;;8.40;100.00;98172.22;4136266;28;20202;-45
2022/11/24 08:22:46;;;;;;;5.85;1.83;;;;;;;8.35;100.00;98171.31;4133629;28;20201;-46
2022/11/24 08:24:48;;;;;;;8.38;2.35;;;;;;;8.32;100.00;98163.59;4135521;28;20240;-45
2022/11/24 08:26:49;;;;;;;8.57;1.30;;;;;;;8.28;100.00;98171.44;4152142;28;20210;-45
2022/11/24 08:28:54;;;;;;;5.07;1.90;;;;;;;8.19;100.00;98166.59;4136375;28;20309;-46
2022/11/24 08:31:04;;;;;;;3.88;1.40;;;;;;;8.27;100.00;98168.94;4137022;28;20882;-46
2022/11/24 08:33:06;;;;;;;4.85;3.47;;;;;;;8.28;100.00;98176.09;4140156;28;20794;-45
2022/11/24 08:35:11;;;;;;;3.38;2.08;;;;;;;8.18;100.00;98193.03;4133639;28;20224;-46
2022/11/24 08:37:15;;;;;;;1.85;1.30;;;;;;;8.26;100.00;98186.38;4140172;28;20205;-48
2022/11/24 08:39:17;;;;;;;7.22;1.73;;;;;;;8.23;100.00;98200.50;4124980;28;20210;-46
2022/11/24 08:41:19;;;;;;;2.95;1.40;;;;;;;8.25;100.00;98203.81;4141175;28;20237;-45
2022/11/24 08:43:21;;;;;;;9.70;2.75;;;;;;;8.27;100.00;98207.09;4122481;28;20322;-45
2022/11/24 08:45:23;;;;;;;1.98;1.65;;;;;;;8.34;100.00;98203.19;4142847;28;20679;-45
2022/11/24 08:47:29;;;;;;;2.97;1.63;;;;;;;8.29;100.00;98216.69;4123897;28;20202;-45
2022/11/24 08:49:31;;;;;;;2.60;1.50;;;;;;;8.17;100.00;98212.34;4141111;28;20229;-45
2022/11/24 08:51:33;;;;;;;5.15;2.13;;;;;;;8.21;100.00;98219.81;4139536;28;20209;-45
2022/11/24 08:53:35;;;;;;;4.13;2.33;;;;;;;8.19;100.00;98221.97;4126366;28;20571;-46
2022/11/24 08:55:37;;;;;;;2.20;2.00;;;;;;;8.19;100.00;98226.53;4150709;28;20688;-47
2022/11/24 08:57:38;;;;;;;1.63;1.10;;;;;;;8.19;100.00;98226.53;4140573;28;20236;-46
2022/11/24 08:59:40;;;;;;;7.38;2.15;;;;;;;8.13;100.00;98235.69;4142672;28;20206;-44
2022/11/24 09:01:42;;;;;;;1.35;1.20;;;;;;;8.12;100.00;98242.22;4143412;28;20690;-46
2022/11/24 09:03:46;;;;;;;7.97;1.75;;;;;;;8.15;100.00;98248.00;4126392;28;20244;-46
2022/11/24 09:05:52;;;;;;;4.30;2.55;;;;;;;8.15;100.00;98241.75;4137682;28;20320;-46
2022/11/24 09:07:53;;;;;;;13.48;1.52;;;;;;;8.20;100.00;98250.88;4154324;28;20262;-46
2022/11/24 09:09:55;;;;;;;4.97;2.42;;;;;;;8.19;100.00;98242.91;4155775;28;20282;-45
2022/11/24 09:11:57;;;;;;;2.33;1.58;;;;;;;8.21;100.00;98251.72;4139872;28;20201;-45
2022/11/24 09:13:59;;;;;;;2.45;1.58;;;;;;;8.20;100.00;98250.03;4155037;28;20260;-45
2022/11/24 09:16:03;;;;;;;8.05;2.75;;;;;;;8.21;100.00;98252.53;4139158;28;20206;-45
2022/11/24 09:18:04;;;;;;;6.38;1.77;;;;;;;8.27;100.00;98239.81;4137422;28;20205;-45
2022/11/24 09:20:06;;;;;;;2.03;1.45;;;;;;;8.32;100.00;98239.94;4154845;28;20193;-46
2022/11/24 09:22:08;;;;;;;8.85;2.97;;;;;;;8.36;100.00;98247.38;4130924;28;20248;-45
2022/11/24 09:24:10;;;;;;;4.22;2.13;;;;;;;8.47;100.00;98245.66;4124987;28;20279;-46
2022/11/24 09:26:14;;;;;;;3.30;1.80;;;;;;;8.52;100.00;98253.94;4142042;28;20284;-45
2022/11/24 09:28:16;;;;;;;3.92;1.45;;;;;;;8.45;100.00;98258.72;4140978;28;20229;-45
2022/11/24 09:30:19;;;;;;;3.50;1.80;;;;;;;8.54;100.00;98255.38;4121874;28;20680;-47
2022/11/24 09:32:21;;;;;;;2.95;1.50;;;;;;;8.61;100.00;98252.50;4125649;28;20541;-45
2022/11/24 09:34:22;;;;;;;3.78;2.08;;;;;;;8.62;100.00;98257.69;4141053;28;20253;-45
2022/11/24 09:36:24;;;;;;;5.18;1.83;;;;;;;8.63;100.00;98262.06;4139526;28;20228;-46
2022/11/24 09:38:27;;;;;;;9.68;1.90;;;;;;;8.70;100.00;98272.84;4137299;28;20287;-45
2022/11/24 09:40:29;;;;;;;5.75;1.50;;;;;;;8.79;100.00;98282.28;4154223;28;20217;-45
2022/11/24 09:43:00;;;;;;;3.45;1.95;;;;;;;8.90;100.00;98281.41;4139100;28;20275;-46